Almelund, Minnesota
Current Conditions -  °F | °C
As of 9:55 AM on Monday 24 Nov 2014 (Local Time) from KOEO Reporting Station
Haze Haze  
Wind Chill: 14°   Ceiling: 900
Heat Index: 26°   Visibility: 5mi
Dew Point: 26°   Wind: 16mph
Humidity: 97%   Direction: 300°WNW
Pressure: 29.41"   Gusts: 23mph
Location:  45.49°N, 92.79°W
Report Text: KOEO 241555Z AUTO 30014G20KT 5SM BR OVC009 M03/M03 A2941 RMK AO2 T10311035
Loading
Personal Weather Stations






























Interactive Weather Map New forecast layout! Learn more

10-Day Weather Forecast

Advertisements
Track Severe Weather on mobile